Flight Track Log - Related Links

Times and Time Zones

All times are in EDT time to prevent confusion due to time zone crossing. See the N411BS flight status page for this flight to view local times or setup timezone preferences in your user account.

Time Position Orientation Groundspeed Altitude Reporting Facility
EDT Latitude Longitude Course Direction KTS MPH feet Rate Location/Type
Tue 06:09:00 PM 33.0064 -86.5809 166° South  Level Estimated
Tue 06:10:00 PM 32.9716 -86.5702 166° South  Level Estimated
Tue 06:11:00 PM 32.9367 -86.5596 166° South  Level Estimated
Tue 06:12:00 PM 32.9019 -86.5490 166° South  Level Estimated
Tue 06:13:00 PM 32.8670 -86.5384 166° South  Level Estimated
Tue 06:14:00 PM 32.8322 -86.5277 166° South  Level Estimated
Tue 06:15:00 PM 32.7973 -86.5172 166° South  Level Estimated
Tue 06:16:00 PM 32.7625 -86.5066 166° South  Level Estimated
Tue 06:17:00 PM 32.7276 -86.4960 166° South  Level Estimated
Tue 06:18:00 PM 32.6928 -86.4854 166° South  Level Estimated
Tue 06:19:00 PM 32.6579 -86.4748 166° South  Level Estimated
Tue 06:20:00 PM 32.6230 -86.4643 166° South  Level Estimated
Tue 06:21:00 PM 32.5882 -86.4537 166° South  Level Estimated
Tue 06:22:00 PM 32.5533 -86.4432 166° South  Level Estimated
Tue 06:23:00 PM 32.5185 -86.4326 166° South  Level Estimated
Tue 06:24:00 PM 32.4836 -86.4221 166° South  Level Estimated
Tue 06:25:00 PM 32.4487 -86.4116 166° South  Level Estimated
Tue 06:26:00 PM 32.4139 -86.4011 166° South  Level Estimated
Tue 06:27:00 PM 32.3790 -86.3906 166° South  Level Estimated
Tue 06:27:05 PM 32.0508 -86.3386 166° South 121 139 5,200  Level Jacksonville Center
Tue 06:28:00 PM 32.3442 -86.3801 166° South  Level Estimated
Tue 06:28:18 PM 32.0072 -86.3322 173° South 130 150 5,100  Level Jacksonville Center
Tue 06:29:00 PM 32.3093 -86.3696 166° South  Level Estimated
Tue 06:29:19 PM 31.9717 -86.3283 175° South 123 142 5,100  Level Jacksonville Center
Tue 06:30:00 PM 32.2744 -86.3591 166° South  Level Estimated
Tue 06:30:19 PM 31.9386 -86.3175 164° South 128 147 5,100  Level Jacksonville Center
Tue 06:31:00 PM 32.2396 -86.3487 166° South  Level Estimated
Tue 06:31:20 PM 31.9056 -86.3014 158° South 126 145 5,000  Level Jacksonville Center
Tue 06:32:00 PM 32.2047 -86.3382 166° South  Level Estimated
Tue 06:32:20 PM 31.8744 -86.2956 171° South 109 125 5,100  Level Jacksonville Center
Tue 06:33:21 PM 31.8414 -86.2869 168° South 128 147 5,200 148 Climbing Jacksonville Center
Tue 06:34:22 PM 31.8083 -86.2736 161° South 113 130 5,400 149 Climbing Jacksonville Center
Tue 06:35:22 PM 31.7772 -86.2625 163° South 114 131 5,500 50 Climbing Jacksonville Center
Tue 06:36:23 PM 31.7442 -86.2542 168° South 125 144 5,500  Level Jacksonville Center
Tue 06:37:23 PM 31.7131 -86.2431 163° South 121 139 5,500  Level Jacksonville Center
Tue 06:38:24 PM 31.6800 -86.2322 164° South 118 136 5,500  Level Jacksonville Center
Tue 06:39:25 PM 31.6489 -86.2214 163° South 120 138 5,500  Level Jacksonville Center
Tue 06:40:25 PM 31.6158 -86.2081 161° South 120 138 5,500  Level Jacksonville Center
Tue 06:41:26 PM 31.5828 -86.1994 167° South 121 139 5,500  Level Jacksonville Center
Tue 06:42:27 PM 31.5517 -86.1886 163° South 118 136 5,500  Level Jacksonville Center
Tue 06:43:33 PM 31.5164 -86.1775 165° South 115 132 5,500  Level Jacksonville Center
Tue 06:44:34 PM 31.4833 -86.1667 164° South 116 133 5,500  Level Jacksonville Center
Tue 06:45:34 PM 31.4544 -86.1558 162° South 118 136 5,500  Level Jacksonville Center
Tue 06:46:35 PM 31.4211 -86.1450 164° South 118 136 5,500  Level Jacksonville Center
Tue 06:47:36 PM 31.3903 -86.1342 163° South 121 139 5,500  Level Jacksonville Center
Tue 06:48:36 PM 31.3592 -86.1258 167° South 114 131 5,500  Level Jacksonville Center
Tue 06:49:37 PM 31.3281 -86.1150 163° South 114 131 5,500  Level Jacksonville Center
Tue 06:50:37 PM 31.2972 -86.1017 160° South 115 132 5,500  Level Jacksonville Center
Tue 06:51:38 PM 31.2639 -86.0886 161° South 115 132 5,500  Level Jacksonville Center
Tue 06:52:39 PM 31.2353 -86.0731 155° Southeast 118 136 5,500 -47 Level Jacksonville Center
Tue 06:53:45 PM 31.2000 -86.0597 162° South 120 138 5,400  Descending Jacksonville Center
Tue 06:54:46 PM 31.1689 -86.0489 163° South 119 137 5,500 49 Climbing Jacksonville Center
Tue 06:55:47 PM 31.1381 -86.0381 163° South 121 139 5,500  Level Jacksonville Center
Tue 06:56:47 PM 31.1028 -86.0297 169° South 120 138 5,500  Level Jacksonville Center
Tue 06:57:48 PM 31.0717 -86.0189 163° South 122 140 5,500  Level Jacksonville Center
Tue 06:58:48 PM 31.0383 -86.0081 164° South 119 137 5,500  Level Jacksonville Center
Tue 06:59:43 PM 31.0094 -86.0000 167° South 118 136 5,500  Level Jacksonville Center
Tue 07:01:00 PM 30.9635 -85.9826 162° South  Level FlightAware Approximate
Tue 07:08:00 PM 30.7128 -85.8881 162° South  Level FlightAware Approximate
Tue 07:09:00 PM 30.6765 -85.8766 166° South  Level FlightAware Approximate
Tue 07:10:00 PM 30.6399 -85.8662 166° South  Level FlightAware Approximate
Tue 07:11:00 PM 30.6034 -85.8557 166° South  Level FlightAware Approximate
Tue 07:12:00 PM 30.5664 -85.8500 180° South  Level FlightAware Approximate
Tue 07:13:00 PM 30.5293 -85.8441 166° South  Level FlightAware Approximate
Tue 07:14:00 PM 30.4928 -85.8336 166° South  Level FlightAware Approximate
Tue 07:15:00 PM 30.4562 -85.8232 166° South  Level FlightAware Approximate
Tue 07:16:00 PM 30.4200 -85.8113 161° South  Level FlightAware Approximate
Tue 07:17:00 PM 30.3844 -85.7971 161° South  Level FlightAware Approximate
Tue 07:18:00 PM 30.3582 -85.7956 161° South  Level Estimated
Tue 07:19:00 PM 30.3582 -85.7956 161° South  Level Estimated
Tue 07:20:00 PM 30.3582 -85.7956 161° South  Level Estimated
Tue 07:21:00 PM 30.3582 -85.7956 161° South  Level Estimated
Tue 07:22:00 PM 30.3582 -85.7956 161° South  Level Estimated
Tue 07:23:00 PM 30.3582 -85.7956 161° South  Level Estimated
Tue 07:24:00 PM 30.3582 -85.7956 161° South  Level Estimated
Tue 07:25:00 PM 30.3582 -85.7956 161° South  Level Estimated
Tue 07:26:00 PM 30.3582 -85.7956 161° South  Level Estimated
Tue 07:27:00 PM 30.3582 -85.7956 161° South  Level Estimated
Tue 07:28:00 PM 30.3582 -85.7956 161° South  Level Estimated
Tue 07:29:00 PM 30.3582 -85.7956 161° South  Level Estimated

Login

Don't have an account? Register now (free) for customized features, flight alerts, and more!